Share

Apia, Samoa

Faleolo International (NSFA) Elev 16 ft | 13.83 °S, 172.01 °W | Change Station

Current weather conditions updated 1 hour ago

Mostly Cloudy
Mostly Cloudy
75 °F
Feels Like 75 °F
N
4
Wind Variable Wind from South
Sunrise 6:34 AM
Sunset 6:16 PM
Moon Waning Gibbous

Today is forecast to be Cooler than yesterday. Scattered thunderstorms tonight.

Pressure 29.86 in
Visibility 6.2 miles
Clouds Few 2000 ft
Mostly Cloudy 11000 ft
Dew Point 73 °F
Humidity 94%
Rainfall 0.00 in
Snow Depth Not available.
UV 0 out of 16
Pollen Not available.
Air Quality Not available.
Flu Activity Not available.
METAR NSFA 211600Z 18003KT 9999 FEW020 BKN110 24/23 Q1011

More Conditions Fewer Conditions

Pressure 29.86 in
Visibility 6.2 miles
Clouds Few 2000 ft
Mostly Cloudy 11000 ft
Dew Point 73 °F
Humidity 94%
Rainfall 0.00 in
Snow Depth Not available.
UV 0 out of 16
Pollen Not available.
Air Quality Not available.
Flu Activity Not available.
METAR NSFA 211600Z 18003KT 9999 FEW020 BKN110 24/23 Q1011

More Conditions Fewer Conditions

10-Day Weather Forecast

Almanac

Astronomy

Apr. 22, 2014 Rise Set
Actual Time 6:34 AM WST 6:16 PM WST
Civil Twilight 6:12 AM WST 6:38 PM WST
Nautical Twilight 5:47 AM WST 7:03 PM WST
Astronomical Twilight 5:22 AM WST 7:28 PM WST
Moon No Moon Rise 12:35 PM WST (4/22)
Length of Visible Light 12h 25m
Length of Day
11h 42m
Tomorrow will be 0m 40s shorter.
Waning Gibbous, 57% of the Moon is Illuminated
Apr 21
Waning Gibbous
Apr 22
Last Quarter
Apr 29
New
May 6
First Quarter
May 14
Full

Yesterday's Extremes

Country Highs Country Lows

Community

  • Glass on White Lake
    Glass on White Lake
  • Bright Eyes
    Bright Eyes
  • Snowy Robin
    Snowy Robin
  • Spring Crocus
    Spring Crocus
  • Sun Pillar and Geese
    Sun Pillar and Geese

WunderPhotos

Upload Photos

1,703,692 photos uploaded!

WunderBlogs® & News

Nearby

Snow Depth

Not available.

Coastal Water Temperatures

Place Temperature
No Stations Reporting

Earthquake Activity

City Distance Mag. Time & Date
No recent earthquake activity has been reported nearby.
Minimum magnitude displayed is 2.5.

Nearby Weather Stations

There are no personal weather stations in this area.

What do you think?

We're not finished. Please let us know what you like, what you don't like, and what you are still missing.